Time;durP1;ratioP1;P1;durP2;ratioP2;P2;SDS_P1;SDS_P2;PMS_P1;PMS_P2;Temp;Humidity;BMP_temperature;BMP_pressure;BME280_temperature;BME280_humidity;BME280_pressure;Samples;Min_cycle;Max_cycle;Signal;HPM_P1;HPM_P2
2022/12/21 00:01:22;;;;;;;58.92;26.88;;;11.70;99.90;;;;;;5023800;28;20101;-73
2022/12/21 00:03:53;;;;;;;72.70;32.25;;;11.70;99.90;;;;;;5042650;28;20083;-72
2022/12/21 00:06:19;;;;;;;63.38;27.23;;;11.70;99.90;;;;;;5038488;28;20066;-72
2022/12/21 00:08:46;;;;;;;78.60;31.20;;;11.70;99.90;;;;;;5027664;28;20379;-73
2022/12/21 00:11:13;;;;;;;77.68;31.33;;;11.60;99.90;;;;;;5026463;28;20025;-72
2022/12/21 00:13:39;;;;;;;84.97;34.03;;;11.60;99.90;;;;;;5020849;28;20088;-73
2022/12/21 00:16:13;;;;;;;69.60;31.92;;;11.50;99.90;;;;;;5027036;28;20041;-74
2022/12/21 00:18:40;;;;;;;72.65;32.05;;;11.60;99.90;;;;;;5025185;28;20021;-73
2022/12/21 00:21:11;;;;;;;142.55;42.83;;;11.60;99.90;;;;;;5024203;28;20036;-73
2022/12/21 00:23:37;;;;;;;75.40;34.28;;;11.60;99.90;;;;;;5024115;28;21013;-73
2022/12/21 00:26:05;;;;;;;67.32;32.55;;;11.60;99.90;;;;;;5021859;28;20441;-73
2022/12/21 00:28:30;;;;;;;69.18;31.05;;;11.60;99.90;;;;;;5026680;28;20465;-74
2022/12/21 00:31:10;;;;;;;80.15;32.85;;;11.60;99.90;;;;;;5020414;28;20092;-73
2022/12/21 00:33:37;;;;;;;90.80;32.60;;;11.50;99.90;;;;;;5026377;28;20024;-73
2022/12/21 00:36:04;;;;;;;79.03;33.65;;;11.50;99.90;;;;;;5022466;28;20053;-73
2022/12/21 00:38:30;;;;;;;106.65;39.38;;;11.50;99.90;;;;;;5026268;28;20516;-74
2022/12/21 00:41:02;;;;;;;106.10;40.00;;;11.50;99.90;;;;;;5025246;28;20092;-71
2022/12/21 00:43:29;;;;;;;101.20;34.03;;;11.50;99.90;;;;;;5027037;28;20508;-73
2022/12/21 00:45:54;;;;;;;69.45;30.95;;;11.50;99.90;;;;;;5025527;28;20097;-73
2022/12/21 00:48:20;;;;;;;76.82;32.15;;;11.50;99.90;;;;;;5026217;28;20160;-73
2022/12/21 00:50:47;;;;;;;90.47;35.90;;;11.50;99.90;;;;;;5028737;28;20705;-73
2022/12/21 00:53:15;;;;;;;118.28;39.50;;;11.50;99.90;;;;;;5028182;28;20039;-72
2022/12/21 00:55:41;;;;;;;72.13;32.05;;;11.60;99.90;;;;;;5026148;28;20056;-72
2022/12/21 00:58:07;;;;;;;96.20;34.88;;;11.60;99.90;;;;;;5027583;28;20076;-73
2022/12/21 01:00:33;;;;;;;78.30;31.60;;;11.60;99.90;;;;;;5026982;28;20565;-74
2022/12/21 01:02:58;;;;;;;73.03;32.50;;;11.60;99.90;;;;;;5026504;28;20029;-73
2022/12/21 01:05:24;;;;;;;70.88;30.48;;;11.60;99.90;;;;;;5027905;28;20029;-71
2022/12/21 01:07:49;;;;;;;58.05;28.85;;;11.60;99.90;;;;;;5027553;28;21518;-73
2022/12/21 01:10:15;;;;;;;52.53;27.00;;;11.60;99.90;;;;;;5024376;28;20029;-72
2022/12/21 01:12:41;;;;;;;61.42;27.95;;;11.60;99.90;;;;;;5017843;28;20505;-71
2022/12/21 01:15:07;;;;;;;65.60;29.48;;;11.60;99.90;;;;;;5025280;28;20124;-72
2022/12/21 01:17:34;;;;;;;65.38;29.63;;;11.70;99.90;;;;;;5026984;28;20041;-72
2022/12/21 01:20:00;;;;;;;78.90;32.00;;;11.60;99.90;;;;;;5030267;28;20036;-72
2022/12/21 01:22:25;;;;;;;80.00;31.63;;;11.60;99.90;;;;;;5034783;28;20056;-73
2022/12/21 01:24:51;;;;;;;74.07;30.05;;;11.60;99.90;;;;;;5030359;28;20053;-72
2022/12/21 01:27:16;;;;;;;84.57;32.63;;;11.40;99.90;;;;;;5029788;28;20021;-72
2022/12/21 01:29:42;;;;;;;78.47;29.65;;;11.50;99.90;;;;;;5032700;28;20381;-72
2022/12/21 01:32:07;;;;;;;103.55;33.20;;;11.40;99.90;;;;;;5041066;28;20064;-72
2022/12/21 01:34:33;;;;;;;81.68;32.28;;;11.40;99.90;;;;;;5036458;28;20367;-72
2022/12/21 01:36:59;;;;;;;75.63;31.00;;;11.40;99.90;;;;;;5036027;28;20348;-73
2022/12/21 01:39:24;;;;;;;96.72;31.75;;;11.50;99.90;;;;;;5041457;28;20021;-72
2022/12/21 01:41:50;;;;;;;90.72;32.10;;;11.50;99.90;;;;;;5032467;28;20026;-72
2022/12/21 01:44:54;;;;;;;67.28;29.33;;;11.40;99.90;;;;;;5037898;28;20031;-70
2022/12/21 01:47:25;;;;;;;77.03;31.20;;;11.50;99.90;;;;;;5039857;28;20029;-72
2022/12/21 01:49:58;;;;;;;85.97;30.08;;;11.50;99.90;;;;;;5039629;28;20121;-73
2022/12/21 01:52:23;;;;;;;65.18;27.40;;;11.50;99.90;;;;;;5026451;28;20112;-72
2022/12/21 01:55:09;;;;;;;268.25;38.08;;;11.40;99.90;;;;;;5027812;28;20558;-73
2022/12/21 01:57:35;;;;;;;271.15;43.05;;;11.30;99.90;;;;;;5020547;28;20075;-72
2022/12/21 02:00:04;;;;;;;72.38;27.85;;;11.40;99.90;;;;;;5032618;28;20029;-72
2022/12/21 02:02:39;;;;;;;115.88;31.40;;;11.40;99.90;;;;;;5029871;28;20405;-72
2022/12/21 02:05:22;;;;;;;81.10;30.10;;;11.30;99.90;;;;;;5029037;28;20254;-73
2022/12/21 02:07:48;;;;;;;82.70;29.83;;;11.40;99.90;;;;;;5034295;28;20025;-71
2022/12/21 02:10:14;;;;;;;69.45;27.73;;;11.40;99.90;;;;;;5026137;28;20053;-72
2022/12/21 02:12:43;;;;;;;77.55;30.58;;;11.30;99.90;;;;;;5030298;28;20018;-73
2022/12/21 02:15:09;;;;;;;132.82;38.28;;;11.40;99.90;;;;;;5026202;28;20070;-73
2022/12/21 02:17:52;;;;;;;88.30;33.38;;;11.40;99.90;;;;;;5030811;28;20033;-72
2022/12/21 02:20:59;;;;;;;144.38;43.08;;;11.30;99.90;;;;;;5031220;28;20490;-73
2022/12/21 02:23:44;;;;;;;95.72;38.17;;;11.30;99.90;;;;;;5012722;28;20050;-71
2022/12/21 02:26:37;;;;;;;69.10;30.08;;;11.30;99.90;;;;;;5028675;28;20623;-72
2022/12/21 02:29:29;;;;;;;86.05;35.90;;;11.40;99.90;;;;;;5022331;28;20025;-72
2022/12/21 02:32:13;;;;;;;64.20;27.48;;;11.40;99.90;;;;;;5032915;28;20041;-72
2022/12/21 02:34:50;;;;;;;57.47;24.92;;;11.40;99.90;;;;;;5020787;28;20036;-72
2022/12/21 02:37:25;;;;;;;66.57;26.52;;;11.30;99.90;;;;;;5030302;28;20052;-72
2022/12/21 02:40:33;;;;;;;79.00;25.52;;;11.30;99.90;;;;;;5022925;28;20079;-72
2022/12/21 02:46:24;;;;;;;101.22;31.48;;;11.30;99.90;;;;;;5028479;28;20052;-71
2022/12/21 02:49:10;;;;;;;54.88;24.95;;;11.40;99.90;;;;;;5027419;28;20026;-72
2022/12/21 02:51:47;;;;;;;65.55;28.75;;;11.40;99.90;;;;;;5028484;28;20029;-72
2022/12/21 02:54:13;;;;;;;55.28;27.27;;;11.40;99.90;;;;;;5034670;28;20431;-75
2022/12/21 02:56:39;;;;;;;59.33;28.30;;;11.40;99.90;;;;;;5023281;28;20082;-71
2022/12/21 02:59:08;;;;;;;61.88;29.83;;;11.50;99.90;;;;;;5027531;28;20661;-73
2022/12/21 03:01:40;;;;;;;64.25;30.67;;;11.50;99.90;;;;;;5025177;28;20042;-72
2022/12/21 03:04:45;;;;;;;90.53;37.77;;;11.40;99.90;;;;;;5029715;28;20026;-71
2022/12/21 03:07:22;;;;;;;111.22;36.50;;;11.40;99.90;;;;;;5029541;28;20115;-71
2022/12/21 03:10:22;;;;;;;111.90;39.28;;;11.40;99.90;;;;;;5023409;28;20546;-72
2022/12/21 03:13:14;;;;;;;70.85;33.63;;;11.30;99.90;;;;;;5030361;28;20060;-73
2022/12/21 03:15:52;;;;;;;57.17;27.50;;;11.40;99.90;;;;;;5027608;28;20049;-72
2022/12/21 03:18:30;;;;;;;148.88;39.33;;;11.40;99.90;;;;;;5026870;28;20551;-71
2022/12/21 03:21:01;;;;;;;126.57;38.40;;;11.40;99.90;;;;;;5025153;28;20061;-73
2022/12/21 03:23:40;;;;;;;66.25;29.45;;;11.30;99.90;;;;;;5026651;28;20040;-73
2022/12/21 03:26:22;;;;;;;88.32;33.90;;;11.30;99.90;;;;;;5027899;28;20021;-72
2022/12/21 03:28:50;;;;;;;132.40;40.28;;;11.30;99.90;;;;;;5029395;28;20035;-74
2022/12/21 03:31:20;;;;;;;127.45;41.00;;;11.30;99.90;;;;;;5028430;28;20021;-72
2022/12/21 03:33:51;;;;;;;77.68;32.03;;;11.30;99.90;;;;;;5028698;28;20117;-72
2022/12/21 03:36:27;;;;;;;81.45;32.72;;;11.30;99.90;;;;;;5026552;28;20124;-72
2022/12/21 03:39:00;;;;;;;109.32;40.15;;;11.40;99.90;;;;;;5027490;28;20025;-72
2022/12/21 03:41:38;;;;;;;169.32;46.25;;;11.40;99.90;;;;;;5028677;28;20055;-71
2022/12/21 03:44:08;;;;;;;90.13;36.00;;;11.40;99.90;;;;;;5031508;28;20048;-71
2022/12/21 03:46:40;;;;;;;92.07;37.13;;;11.30;99.90;;;;;;5019170;28;20018;-71
2022/12/21 03:49:37;;;;;;;76.38;33.05;;;11.30;99.90;;;;;;5017723;28;20033;-74
2022/12/21 03:52:11;;;;;;;108.22;39.38;;;11.30;99.90;;;;;;5024942;28;20509;-72
2022/12/21 03:55:01;;;;;;;138.57;45.85;;;11.20;99.90;;;;;;5022719;28;20041;-71
2022/12/21 03:57:29;;;;;;;110.72;39.35;;;11.30;99.90;;;;;;5021038;28;20026;-73
2022/12/21 03:59:57;;;;;;;167.60;48.38;;;11.30;99.90;;;;;;5026003;28;20034;-72
2022/12/21 04:02:44;;;;;;;83.88;35.55;;;11.30;99.90;;;;;;5025475;28;20029;-73
2022/12/21 04:05:13;;;;;;;81.32;33.30;;;11.30;99.90;;;;;;5023616;28;20164;-69
2022/12/21 04:07:41;;;;;;;118.32;42.45;;;11.20;99.90;;;;;;5024389;28;20033;-73
2022/12/21 04:10:11;;;;;;;80.15;35.92;;;11.20;99.90;;;;;;5025037;28;20049;-72
2022/12/21 04:12:36;;;;;;;113.55;38.47;;;11.30;99.90;;;;;;5023898;28;20481;-73
2022/12/21 04:16:03;;;;;;;80.38;33.40;;;11.20;99.90;;;;;;5027514;28;20033;-73
2022/12/21 04:18:08;;;;;;;103.28;37.35;;;11.20;99.90;;;;;;5016442;28;20034;-72
2022/12/21 04:20:34;;;;;;;81.25;33.85;;;11.30;99.90;;;;;;5020729;28;20087;-73
2022/12/21 04:28:30;;;;;;;83.00;35.15;;;11.30;99.90;;;;;;5026386;28;20520;-73
2022/12/21 04:30:57;;;;;;;73.97;32.80;;;11.30;99.90;;;;;;5025864;28;20030;-74
2022/12/21 04:33:24;;;;;;;72.05;30.85;;;11.30;99.90;;;;;;5023582;28;20022;-74
2022/12/21 04:38:37;;;;;;;78.22;32.00;;;11.30;99.90;;;;;;5032880;28;20086;-73
2022/12/21 04:41:03;;;;;;;72.72;30.88;;;11.30;99.90;;;;;;5023843;28;20101;-73
2022/12/21 04:43:29;;;;;;;71.28;31.85;;;11.30;99.90;;;;;;5034271;28;20163;-73
2022/12/21 04:46:11;;;;;;;86.90;35.58;;;11.30;99.90;;;;;;5028554;28;20036;-73
2022/12/21 04:48:37;;;;;;;79.63;30.00;;;11.40;99.90;;;;;;5027723;28;20026;-73
2022/12/21 04:51:05;;;;;;;82.75;33.05;;;11.30;99.90;;;;;;5025184;28;20030;-72
2022/12/21 04:53:30;;;;;;;86.35;35.92;;;11.20;99.90;;;;;;5030923;28;20025;-73
2022/12/21 04:55:56;;;;;;;86.78;35.13;;;11.20;99.90;;;;;;5020017;28;20041;-73
2022/12/21 04:58:21;;;;;;;159.18;40.08;;;11.20;99.90;;;;;;5025815;28;20076;-72
2022/12/21 05:00:47;;;;;;;77.25;32.55;;;11.20;99.90;;;;;;5019844;28;20033;-72
2022/12/21 05:03:12;;;;;;;79.95;33.20;;;11.20;99.90;;;;;;5025205;28;20080;-73
2022/12/21 05:05:38;;;;;;;133.88;39.58;;;11.20;99.90;;;;;;5029224;28;20037;-73
2022/12/21 05:08:04;;;;;;;116.68;38.63;;;11.20;99.90;;;;;;5027871;28;20032;-72
2022/12/21 05:10:30;;;;;;;89.95;37.25;;;11.20;99.90;;;;;;5025180;28;20088;-72
2022/12/21 05:12:55;;;;;;;141.27;43.40;;;11.20;99.90;;;;;;5027531;28;20110;-72
2022/12/21 05:15:21;;;;;;;93.20;38.08;;;11.20;99.90;;;;;;5028676;28;20034;-72
2022/12/21 05:17:46;;;;;;;128.93;38.67;;;11.10;99.90;;;;;;5027616;28;20493;-73
2022/12/21 05:20:12;;;;;;;87.35;34.58;;;11.20;99.90;;;;;;5024177;28;20029;-72
2022/12/21 05:22:37;;;;;;;88.30;33.13;;;11.10;99.90;;;;;;5029503;28;20030;-72
2022/12/21 05:25:04;;;;;;;92.82;36.35;;;11.10;99.90;;;;;;5028465;28;20079;-73
2022/12/21 05:27:29;;;;;;;80.70;32.50;;;11.20;99.90;;;;;;5026633;28;20041;-73
2022/12/21 05:29:55;;;;;;;82.80;32.63;;;11.20;99.90;;;;;;5027944;28;20025;-72
2022/12/21 05:32:20;;;;;;;107.43;36.70;;;11.20;99.90;;;;;;5025827;28;20049;-73
2022/12/21 05:34:46;;;;;;;76.28;32.83;;;11.10;99.90;;;;;;5028509;28;20028;-73
2022/12/21 05:37:11;;;;;;;88.70;34.10;;;11.10;99.90;;;;;;5022213;28;20033;-73
2022/12/21 05:39:37;;;;;;;81.55;33.40;;;11.20;99.90;;;;;;5021317;28;20025;-73
2022/12/21 05:42:03;;;;;;;71.18;31.80;;;11.10;99.90;;;;;;5020743;28;20053;-73
2022/12/21 05:44:29;;;;;;;71.72;31.23;;;11.10;99.90;;;;;;5027866;28;20030;-73
2022/12/21 05:46:55;;;;;;;67.55;30.92;;;11.10;99.90;;;;;;5019974;28;20045;-73
2022/12/21 05:49:21;;;;;;;80.60;32.85;;;11.20;99.90;;;;;;5025151;28;20026;-73
2022/12/21 05:51:47;;;;;;;81.60;31.75;;;11.20;99.90;;;;;;5030727;28;20033;-73
2022/12/21 05:54:14;;;;;;;98.57;32.53;;;11.20;99.90;;;;;;5024403;28;20096;-73
2022/12/21 05:56:40;;;;;;;96.15;31.92;;;11.00;99.90;;;;;;5028964;28;20096;-73
2022/12/21 05:59:05;;;;;;;70.38;29.05;;;11.10;99.90;;;;;;5025450;28;20025;-73
2022/12/21 06:01:32;;;;;;;90.93;32.20;;;11.10;99.90;;;;;;5029542;28;20026;-73
2022/12/21 06:03:57;;;;;;;102.88;35.40;;;11.10;99.90;;;;;;5024417;28;20021;-72
2022/12/21 06:06:23;;;;;;;74.57;30.17;;;11.10;99.90;;;;;;5026871;28;20030;-73
2022/12/21 06:08:49;;;;;;;77.15;29.17;;;11.10;99.90;;;;;;5025208;28;20033;-72
2022/12/21 06:11:18;;;;;;;73.75;28.23;;;11.10;99.90;;;;;;5024943;28;20022;-72
2022/12/21 06:13:44;;;;;;;63.53;28.33;;;11.10;99.90;;;;;;5031981;28;20036;-73
2022/12/21 06:16:16;;;;;;;133.52;37.53;;;11.00;99.90;;;;;;5029281;28;20405;-71
2022/12/21 06:18:41;;;;;;;76.95;28.20;;;11.00;99.90;;;;;;5027911;28;20025;-72
2022/12/21 06:21:09;;;;;;;91.22;32.05;;;10.90;99.90;;;;;;5027477;28;20048;-71
2022/12/21 06:23:35;;;;;;;91.93;30.70;;;10.90;99.90;;;;;;5024865;28;20025;-71
2022/12/21 06:26:02;;;;;;;129.93;30.17;;;10.90;99.90;;;;;;5028056;28;20056;-71
2022/12/21 06:28:29;;;;;;;65.78;23.50;;;10.90;99.90;;;;;;5025042;28;20033;-71
2022/12/21 06:30:55;;;;;;;65.18;22.40;;;10.80;99.90;;;;;;5023353;28;20734;-70
2022/12/21 06:33:22;;;;;;;57.97;23.38;;;10.70;99.90;;;;;;5025359;28;20153;-71
2022/12/21 06:35:53;;;;;;;82.80;26.52;;;10.70;99.90;;;;;;5026387;28;20116;-71
2022/12/21 06:38:18;;;;;;;23.75;12.63;;;10.80;99.90;;;;;;5027718;28;20112;-72
2022/12/21 06:40:44;;;;;;;58.72;21.70;;;10.80;99.90;;;;;;5038096;28;20160;-70
2022/12/21 06:43:10;;;;;;;54.50;22.60;;;10.90;99.90;;;;;;5025096;28;20065;-71
2022/12/21 06:45:36;;;;;;;54.60;22.40;;;10.80;99.90;;;;;;5024630;28;20038;-71
2022/12/21 06:48:01;;;;;;;54.35;21.33;;;10.80;99.90;;;;;;5029430;28;20434;-71
2022/12/21 06:50:27;;;;;;;47.95;21.38;;;10.80;99.90;;;;;;5018095;28;20029;-71
2022/12/21 06:52:53;;;;;;;89.03;27.27;;;10.80;99.90;;;;;;5024061;28;20017;-71
2022/12/21 06:55:18;;;;;;;59.53;23.52;;;10.80;99.90;;;;;;5028346;28;20408;-71
2022/12/21 06:57:44;;;;;;;58.50;24.05;;;10.80;99.90;;;;;;5021693;28;20021;-71
2022/12/21 07:00:10;;;;;;;52.17;24.45;;;10.80;99.90;;;;;;5026578;28;20385;-71
2022/12/21 07:02:36;;;;;;;54.25;22.50;;;10.80;99.90;;;;;;5022561;28;20492;-71
2022/12/21 07:05:02;;;;;;;56.30;21.27;;;10.80;99.90;;;;;;5029442;28;20048;-71
2022/12/21 07:07:28;;;;;;;41.17;18.08;;;10.90;99.90;;;;;;5032239;28;20060;-73
2022/12/21 07:09:53;;;;;;;52.15;18.83;;;10.70;99.90;;;;;;5021861;28;20253;-72
2022/12/21 07:12:19;;;;;;;49.72;22.38;;;10.70;99.90;;;;;;5026163;28;20042;-72
2022/12/21 07:14:44;;;;;;;53.05;21.80;;;10.70;99.90;;;;;;5021639;28;20038;-72
2022/12/21 07:17:10;;;;;;;82.50;25.70;;;10.70;99.90;;;;;;5020677;28;20022;-71
2022/12/21 07:19:36;;;;;;;97.78;28.80;;;10.70;99.90;;;;;;5022319;28;20415;-71
2022/12/21 07:22:01;;;;;;;51.58;20.33;;;10.70;99.90;;;;;;5020044;28;20029;-73
2022/12/21 07:24:27;;;;;;;51.72;18.67;;;10.70;99.90;;;;;;5023885;28;20033;-72
2022/12/21 07:26:54;;;;;;;50.28;19.23;;;10.70;99.90;;;;;;5023562;28;20022;-72
2022/12/21 07:29:19;;;;;;;66.90;21.90;;;10.70;99.90;;;;;;5023712;28;20045;-71
2022/12/21 07:31:45;;;;;;;68.78;21.55;;;10.70;99.90;;;;;;5018349;28;20029;-72
2022/12/21 07:34:11;;;;;;;46.92;19.90;;;10.70;99.90;;;;;;5024775;28;20038;-72
2022/12/21 07:36:37;;;;;;;100.00;27.70;;;10.60;99.90;;;;;;5026737;28;20048;-71
2022/12/21 07:39:03;;;;;;;55.22;20.17;;;10.70;99.90;;;;;;5055813;28;20045;-71
2022/12/21 07:41:29;;;;;;;82.57;25.08;;;10.70;99.90;;;;;;5023377;28;20037;-71
2022/12/21 07:43:54;;;;;;;40.33;17.50;;;10.70;99.90;;;;;;5021340;28;20249;-73
2022/12/21 07:46:20;;;;;;;51.22;19.30;;;10.70;99.90;;;;;;5028925;28;20025;-72
2022/12/21 07:48:46;;;;;;;57.70;20.20;;;10.60;99.90;;;;;;5020827;28;20030;-73
2022/12/21 07:51:12;;;;;;;52.92;19.52;;;10.70;99.90;;;;;;5024054;28;20102;-71
2022/12/21 07:53:38;;;;;;;46.85;19.67;;;10.60;99.90;;;;;;5025052;28;20029;-74
2022/12/21 07:56:12;;;;;;;46.28;16.85;;;10.60;99.90;;;;;;5026994;28;20057;-71
2022/12/21 07:58:38;;;;;;;36.75;15.65;;;10.60;99.90;;;;;;5020804;28;20037;-72
2022/12/21 08:01:12;;;;;;;47.25;17.65;;;10.60;99.90;;;;;;5022052;28;20410;-71
2022/12/21 08:03:39;;;;;;;43.03;16.85;;;10.60;99.90;;;;;;5023333;28;20478;-71
2022/12/21 08:06:06;;;;;;;42.53;17.10;;;10.60;99.90;;;;;;5024980;28;20072;-70
2022/12/21 08:08:32;;;;;;;39.83;16.92;;;10.50;99.90;;;;;;5031279;28;20030;-71
2022/12/21 08:10:58;;;;;;;37.25;14.90;;;10.50;99.90;;;;;;5020010;28;20045;-70
2022/12/21 08:13:24;;;;;;;46.03;16.08;;;10.50;99.90;;;;;;5027862;28;20443;-71
2022/12/21 08:16:04;;;;;;;35.17;14.05;;;10.40;99.90;;;;;;5022869;28;20049;-72
2022/12/21 08:18:29;;;;;;;35.08;13.88;;;10.40;99.90;;;;;;5025391;28;20025;-73
2022/12/21 08:20:56;;;;;;;40.83;14.77;;;10.50;99.90;;;;;;5018495;28;20071;-72
2022/12/21 08:23:22;;;;;;;28.10;12.30;;;10.50;99.90;;;;;;5024890;28;20034;-72
2022/12/21 08:25:48;;;;;;;39.95;14.88;;;10.50;99.90;;;;;;5022164;28;20424;-72
2022/12/21 08:28:13;;;;;;;37.08;14.02;;;10.50;99.90;;;;;;5022873;28;20072;-73
2022/12/21 08:30:40;;;;;;;48.80;17.88;;;10.50;99.90;;;;;;5022004;28;20403;-71
2022/12/21 08:33:06;;;;;;;40.28;16.25;;;10.40;99.90;;;;;;5023106;28;20434;-73
2022/12/21 08:35:31;;;;;;;42.88;18.48;;;10.40;99.90;;;;;;5024724;28;20068;-72
2022/12/21 08:37:57;;;;;;;49.97;19.05;;;10.40;99.90;;;;;;5026326;28;20041;-71
2022/12/21 08:40:23;;;;;;;45.45;18.55;;;10.40;99.90;;;;;;5018945;28;20486;-71
2022/12/21 08:42:48;;;;;;;53.45;21.67;;;10.40;99.90;;;;;;5031169;28;20079;-71
2022/12/21 08:45:14;;;;;;;56.78;20.67;;;10.40;99.90;;;;;;5019587;28;20468;-72
2022/12/21 08:47:40;;;;;;;43.85;19.70;;;10.30;99.90;;;;;;5022535;28;20042;-71
2022/12/21 08:50:06;;;;;;;46.15;20.45;;;10.30;99.90;;;;;;5029034;28;20037;-72
2022/12/21 08:52:32;;;;;;;46.78;20.42;;;10.40;99.90;;;;;;5024491;28;20029;-71
2022/12/21 08:54:58;;;;;;;54.38;21.45;;;10.40;99.90;;;;;;5017736;28;20041;-69
2022/12/21 08:57:24;;;;;;;52.65;23.40;;;10.40;99.90;;;;;;5024802;28;20061;-71
2022/12/21 08:59:50;;;;;;;62.17;24.80;;;10.40;99.90;;;;;;5021334;28;20071;-72
2022/12/21 09:02:16;;;;;;;56.75;25.02;;;10.40;99.90;;;;;;5024231;28;20034;-72
2022/12/21 09:04:42;;;;;;;63.30;25.85;;;10.40;99.90;;;;;;5028575;28;20037;-72
2022/12/21 09:07:07;;;;;;;65.35;26.33;;;10.30;99.90;;;;;;5019731;28;20109;-71
2022/12/21 09:09:33;;;;;;;84.93;30.10;;;10.30;99.90;;;;;;5020754;28;20478;-72
2022/12/21 09:12:00;;;;;;;76.63;29.42;;;10.30;99.90;;;;;;5020195;28;20045;-72
2022/12/21 09:14:27;;;;;;;66.53;27.73;;;10.40;99.90;;;;;;5025629;28;20390;-72
2022/12/21 09:16:54;;;;;;;63.97;28.48;;;10.50;99.90;;;;;;5024500;28;20591;-71
2022/12/21 09:19:19;;;;;;;64.32;28.75;;;10.50;99.90;;;;;;5031503;28;20441;-72
2022/12/21 09:21:45;;;;;;;65.50;26.80;;;10.50;99.90;;;;;;5022562;28;20022;-72
2022/12/21 09:24:11;;;;;;;66.43;28.60;;;10.60;99.90;;;;;;5024946;28;20026;-72
2022/12/21 09:26:36;;;;;;;65.30;28.02;;;10.60;99.90;;;;;;5028585;28;20026;-72
2022/12/21 09:29:02;;;;;;;62.58;26.55;;;10.60;99.90;;;;;;5025064;28;20476;-72
2022/12/21 09:31:28;;;;;;;70.80;27.70;;;10.60;99.90;;;;;;5034796;28;20032;-72
2022/12/21 09:33:55;;;;;;;66.20;28.02;;;10.60;99.90;;;;;;5026904;28;20091;-72
2022/12/21 09:36:21;;;;;;;62.00;25.40;;;10.60;99.90;;;;;;5024342;28;20044;-72
2022/12/21 09:38:47;;;;;;;55.90;22.45;;;10.60;99.90;;;;;;5027212;28;20474;-72
2022/12/21 09:41:23;;;;;;;58.95;23.05;;;10.60;99.90;;;;;;5027858;28;20064;-72
2022/12/21 09:44:05;;;;;;;52.78;20.88;;;10.60;99.90;;;;;;5029453;28;20025;-72
2022/12/21 09:46:35;;;;;;;51.97;20.50;;;10.60;99.90;;;;;;5031578;28;20030;-72
2022/12/21 09:49:06;;;;;;;55.28;19.27;;;10.70;99.90;;;;;;5027481;28;20041;-72
2022/12/21 09:51:35;;;;;;;54.72;19.38;;;10.70;99.90;;;;;;5061615;28;20409;-71
2022/12/21 09:54:06;;;;;;;54.88;20.02;;;10.50;99.90;;;;;;5029372;28;20021;-72
2022/12/21 09:56:38;;;;;;;46.72;19.23;;;10.60;99.90;;;;;;5033406;28;20037;-72
2022/12/21 09:59:04;;;;;;;48.97;19.45;;;10.50;99.90;;;;;;5030998;28;20476;-73
2022/12/21 10:01:32;;;;;;;57.53;21.95;;;10.50;99.90;;;;;;5024376;28;20030;-72
2022/12/21 10:04:15;;;;;;;54.00;19.13;;;10.60;99.90;;;;;;5026074;28;20018;-72
2022/12/21 10:06:56;;;;;;;40.60;17.00;;;10.60;99.90;;;;;;5023121;28;20130;-71
2022/12/21 10:09:58;;;;;;;48.47;17.88;;;10.60;99.90;;;;;;5029207;28;20018;-71
2022/12/21 10:12:49;;;;;;;51.75;17.70;;;10.60;99.90;;;;;;5037511;28;20044;-71
2022/12/21 10:15:24;;;;;;;48.67;18.80;;;10.60;99.90;;;;;;5026393;28;20180;-71
2022/12/21 10:18:01;;;;;;;57.50;17.83;;;10.70;99.90;;;;;;5025232;28;20040;-72
2022/12/21 10:20:44;;;;;;;50.00;15.90;;;10.70;99.90;;;;;;5045944;28;20037;-72
2022/12/21 10:23:16;;;;;;;;;;;10.70;99.90;;;;;;5024998;28;20041;-70
2022/12/21 10:25:45;;;;;;;46.33;15.77;;;10.70;99.90;;;;;;5033412;28;19948;-72
2022/12/21 10:29:06;;;;;;;41.08;15.05;;;10.80;99.90;;;;;;5029314;28;20100;-73
2022/12/21 10:31:44;;;;;;;43.30;14.27;;;10.70;99.90;;;;;;4970651;28;20034;-73
2022/12/21 10:34:17;;;;;;;45.25;14.07;;;10.70;99.90;;;;;;4990291;28;20518;-73
2022/12/21 10:36:46;;;;;;;39.70;14.13;;;10.70;99.90;;;;;;5014733;28;20078;-72
2022/12/21 10:39:15;;;;;;;40.63;12.82;;;10.70;99.90;;;;;;5025623;28;20543;-74
2022/12/21 10:41:49;;;;;;;39.95;14.80;;;10.70;99.90;;;;;;5027789;28;20043;-73
2022/12/21 10:44:15;;;;;;;36.75;13.55;;;10.80;99.90;;;;;;5021605;28;20029;-73
2022/12/21 10:46:40;;;;;;;36.38;13.13;;;10.80;99.90;;;;;;5033725;28;20018;-74
2022/12/21 10:49:31;;;;;;;36.05;13.75;;;10.80;99.90;;;;;;5031555;28;20032;-73
2022/12/21 10:51:57;;;;;;;39.80;13.90;;;10.80;99.90;;;;;;5025693;28;20499;-73
2022/12/21 10:54:27;;;;;;;38.35;13.52;;;10.90;99.90;;;;;;5031056;28;20116;-73
2022/12/21 10:56:56;;;;;;;36.67;13.40;;;10.80;99.90;;;;;;5022007;28;20072;-73
2022/12/21 10:59:29;;;;;;;36.70;14.52;;;10.80;99.90;;;;;;5030850;28;20540;-73
2022/12/21 11:01:54;;;;;;;39.85;14.25;;;10.80;99.90;;;;;;5023895;28;20044;-73
2022/12/21 11:04:24;;;;;;;33.25;13.80;;;10.90;99.90;;;;;;5028418;28;20031;-74
2022/12/21 11:07:03;;;;;;;33.85;12.60;;;10.90;99.90;;;;;;5020310;28;20025;-74
2022/12/21 11:09:34;;;;;;;36.33;13.40;;;10.90;99.90;;;;;;5027428;28;20022;-74
2022/12/21 11:12:14;;;;;;;35.65;12.75;;;11.00;99.90;;;;;;5021167;28;20090;-73
2022/12/21 11:14:40;;;;;;;28.60;11.95;;;10.90;99.90;;;;;;5024228;28;20037;-72
2022/12/21 11:17:09;;;;;;;35.63;11.70;;;10.80;99.90;;;;;;5027231;28;20040;-72
2022/12/21 11:19:36;;;;;;;34.33;11.32;;;10.90;99.90;;;;;;5022319;28;20039;-71
2022/12/21 11:22:07;;;;;;;30.35;11.57;;;10.80;99.90;;;;;;5022177;28;20292;-72
2022/12/21 11:24:37;;;;;;;34.00;11.20;;;10.90;99.90;;;;;;5019704;28;20022;-72
2022/12/21 11:27:11;;;;;;;25.55;10.70;;;10.90;99.90;;;;;;5023861;28;20040;-72
2022/12/21 11:29:54;;;;;;;27.38;11.07;;;10.90;99.90;;;;;;5022799;28;20572;-72
2022/12/21 11:32:22;;;;;;;33.58;12.05;;;11.00;99.90;;;;;;5026401;28;20029;-72
2022/12/21 11:35:00;;;;;;;31.73;10.77;;;10.90;99.90;;;;;;5019070;28;20538;-72
2022/12/21 11:37:37;;;;;;;23.80;10.35;;;11.00;99.90;;;;;;5028423;28;20083;-72
2022/12/21 11:40:22;;;;;;;36.38;12.10;;;11.00;99.90;;;;;;5018713;28;20034;-71
2022/12/21 11:43:02;;;;;;;27.30;10.70;;;11.10;99.90;;;;;;5032025;28;20072;-71
2022/12/21 11:45:46;;;;;;;32.42;12.25;;;11.00;99.90;;;;;;5021569;28;20061;-71
2022/12/21 11:48:40;;;;;;;26.60;11.02;;;10.90;99.90;;;;;;5022572;28;20029;-71
2022/12/21 11:51:29;;;;;;;28.65;11.93;;;11.00;99.90;;;;;;5023614;28;20512;-71
2022/12/21 11:54:09;;;;;;;29.73;13.18;;;11.00;99.90;;;;;;5021677;28;20029;-70
2022/12/21 11:57:07;;;;;;;29.35;12.77;;;11.00;99.90;;;;;;5028806;28;20238;-72
2022/12/21 11:59:50;;;;;;;30.55;13.30;;;11.00;99.90;;;;;;5023757;28;20068;-72
2022/12/21 12:02:50;;;;;;;32.10;12.73;;;10.90;99.90;;;;;;4999092;28;20121;-71
2022/12/21 12:05:33;;;;;;;26.35;12.25;;;10.90;99.90;;;;;;5022983;28;20018;-71
2022/12/21 12:08:16;;;;;;;24.95;12.52;;;10.90;99.90;;;;;;5023069;28;20033;-72
2022/12/21 12:11:00;;;;;;;31.88;13.68;;;10.80;99.90;;;;;;5039837;28;20025;-71
2022/12/21 12:13:50;;;;;;;28.23;11.48;;;10.90;99.90;;;;;;5020607;28;20039;-70
2022/12/21 12:17:05;;;;;;;22.65;10.85;;;10.90;99.90;;;;;;5025753;28;20046;-71
2022/12/21 12:19:59;;;;;;;28.63;11.15;;;10.80;99.90;;;;;;5007590;28;20045;-72
2022/12/21 12:22:51;;;;;;;32.90;11.38;;;10.90;99.90;;;;;;5018526;28;20026;-71
2022/12/21 12:25:23;;;;;;;27.10;10.43;;;10.90;99.90;;;;;;5023196;28;20037;-72
2022/12/21 12:28:15;;;;;;;18.27;9.57;;;10.90;99.90;;;;;;5024779;28;20022;-71
2022/12/21 12:30:58;;;;;;;21.83;9.52;;;10.90;99.90;;;;;;5020496;28;20492;-71
2022/12/21 12:33:32;;;;;;;19.17;8.93;;;10.90;99.90;;;;;;5023507;28;20068;-71
2022/12/21 12:36:07;;;;;;;17.90;9.25;;;10.90;99.90;;;;;;5025986;28;20049;-71
2022/12/21 12:39:07;;;;;;;17.30;8.00;;;10.90;99.90;;;;;;5025861;28;20025;-73
2022/12/21 12:41:41;;;;;;;18.55;8.00;;;10.90;99.90;;;;;;5021981;28;20036;-72
2022/12/21 12:44:26;;;;;;;18.90;7.70;;;11.00;99.90;;;;;;5023419;28;20021;-72
2022/12/21 12:47:25;;;;;;;17.48;7.35;;;10.90;99.90;;;;;;5025253;28;20479;-72
2022/12/21 12:50:16;;;;;;;13.30;8.13;;;11.00;99.90;;;;;;5028480;28;20025;-71
2022/12/21 12:52:53;;;;;;;21.55;8.10;;;11.00;99.90;;;;;;5030033;28;20104;-71
2022/12/21 12:55:25;;;;;;;18.58;8.57;;;11.00;99.90;;;;;;5025973;28;20502;-71
2022/12/21 12:58:05;;;;;;;18.30;8.80;;;11.00;99.90;;;;;;5027768;28;20048;-70
2022/12/21 13:01:03;;;;;;;23.77;11.68;;;11.00;99.90;;;;;;5024760;28;20026;-71